sensor_id;sensor_type;location;lat;lon;timestamp;temperature;humidity
70807;DHT22;58882;52.170;5.386;2023-10-08T00:02:45;22.30;60.30
70807;DHT22;58882;52.170;5.386;2023-10-08T00:05:13;22.20;60.30
70807;DHT22;58882;52.170;5.386;2023-10-08T00:07:43;22.20;60.30
70807;DHT22;58882;52.170;5.386;2023-10-08T00:10:10;22.20;60.30
70807;DHT22;58882;52.170;5.386;2023-10-08T00:12:36;22.20;60.40
70807;DHT22;58882;52.170;5.386;2023-10-08T00:15:03;22.20;60.50
70807;DHT22;58882;52.170;5.386;2023-10-08T00:17:34;22.20;60.70
70807;DHT22;58882;52.170;5.386;2023-10-08T00:20:00;22.20;60.90
70807;DHT22;58882;52.170;5.386;2023-10-08T00:22:27;22.10;60.90
70807;DHT22;58882;52.170;5.386;2023-10-08T00:24:57;22.10;61.00
70807;DHT22;58882;52.170;5.386;2023-10-08T00:27:25;22.10;61.20
70807;DHT22;58882;52.170;5.386;2023-10-08T00:29:52;22.10;61.30
70807;DHT22;58882;52.170;5.386;2023-10-08T00:32:19;22.10;61.40
70807;DHT22;58882;52.170;5.386;2023-10-08T00:34:48;22.10;61.50
70807;DHT22;58882;52.170;5.386;2023-10-08T00:37:18;22.00;61.60
70807;DHT22;58882;52.170;5.386;2023-10-08T00:39:45;22.00;61.60
70807;DHT22;58882;52.170;5.386;2023-10-08T00:42:12;22.00;61.80
70807;DHT22;58882;52.170;5.386;2023-10-08T00:44:39;22.00;61.80
70807;DHT22;58882;52.170;5.386;2023-10-08T00:47:18;22.00;61.90
70807;DHT22;58882;52.170;5.386;2023-10-08T00:49:48;22.00;62.00
70807;DHT22;58882;52.170;5.386;2023-10-08T00:52:21;22.00;62.00
70807;DHT22;58882;52.170;5.386;2023-10-08T00:54:58;22.00;63.00
70807;DHT22;58882;52.170;5.386;2023-10-08T00:57:36;22.00;62.20
70807;DHT22;58882;52.170;5.386;2023-10-08T01:00:06;22.00;62.20
70807;DHT22;58882;52.170;5.386;2023-10-08T01:02:42;22.00;62.30
70807;DHT22;58882;52.170;5.386;2023-10-08T01:05:27;22.00;62.20
70807;DHT22;58882;52.170;5.386;2023-10-08T01:08:14;22.00;62.20
70807;DHT22;58882;52.170;5.386;2023-10-08T01:10:49;22.00;62.20
70807;DHT22;58882;52.170;5.386;2023-10-08T01:13:25;22.10;62.30
70807;DHT22;58882;52.170;5.386;2023-10-08T01:15:53;22.10;62.30
70807;DHT22;58882;52.170;5.386;2023-10-08T01:18:22;22.10;62.20
70807;DHT22;58882;52.170;5.386;2023-10-08T01:20:57;22.10;62.20
70807;DHT22;58882;52.170;5.386;2023-10-08T01:23:31;22.00;62.20
70807;DHT22;58882;52.170;5.386;2023-10-08T01:25:58;22.00;62.20
70807;DHT22;58882;52.170;5.386;2023-10-08T01:28:38;22.00;62.30
70807;DHT22;58882;52.170;5.386;2023-10-08T01:31:05;22.00;62.40
70807;DHT22;58882;52.170;5.386;2023-10-08T01:33:33;22.00;62.40
70807;DHT22;58882;52.170;5.386;2023-10-08T01:36:13;22.00;63.30
70807;DHT22;58882;52.170;5.386;2023-10-08T01:38:40;22.00;62.40
70807;DHT22;58882;52.170;5.386;2023-10-08T01:41:09;22.00;62.40
70807;DHT22;58882;52.170;5.386;2023-10-08T01:43:46;22.00;63.30
70807;DHT22;58882;52.170;5.386;2023-10-08T01:46:13;22.00;62.40
70807;DHT22;58882;52.170;5.386;2023-10-08T01:48:42;22.00;62.50
70807;DHT22;58882;52.170;5.386;2023-10-08T01:51:12;22.00;62.50
70807;DHT22;58882;52.170;5.386;2023-10-08T01:53:46;22.00;62.60
70807;DHT22;58882;52.170;5.386;2023-10-08T01:56:14;22.00;62.60
70807;DHT22;58882;52.170;5.386;2023-10-08T01:58:41;22.00;62.70
70807;DHT22;58882;52.170;5.386;2023-10-08T02:01:08;22.00;62.80
70807;DHT22;58882;52.170;5.386;2023-10-08T02:03:39;22.00;62.80
70807;DHT22;58882;52.170;5.386;2023-10-08T02:06:06;21.90;62.70
70807;DHT22;58882;52.170;5.386;2023-10-08T02:08:35;21.90;62.90
70807;DHT22;58882;52.170;5.386;2023-10-08T02:11:03;21.90;62.90
70807;DHT22;58882;52.170;5.386;2023-10-08T02:13:30;21.90;62.90
70807;DHT22;58882;52.170;5.386;2023-10-08T02:15:57;21.90;62.90
70807;DHT22;58882;52.170;5.386;2023-10-08T02:18:25;21.90;63.00
70807;DHT22;58882;52.170;5.386;2023-10-08T02:20:52;21.90;63.00
70807;DHT22;58882;52.170;5.386;2023-10-08T02:23:19;21.90;63.10
70807;DHT22;58882;52.170;5.386;2023-10-08T02:25:46;21.90;63.10
70807;DHT22;58882;52.170;5.386;2023-10-08T02:28:14;21.90;63.00
70807;DHT22;58882;52.170;5.386;2023-10-08T02:30:42;21.90;63.00
70807;DHT22;58882;52.170;5.386;2023-10-08T02:33:09;21.90;63.00
70807;DHT22;58882;52.170;5.386;2023-10-08T02:35:44;21.90;63.00
70807;DHT22;58882;52.170;5.386;2023-10-08T02:38:16;21.90;63.00
70807;DHT22;58882;52.170;5.386;2023-10-08T02:40:45;21.90;63.00
70807;DHT22;58882;52.170;5.386;2023-10-08T02:43:15;21.90;63.00
70807;DHT22;58882;52.170;5.386;2023-10-08T02:45:44;21.90;63.00
70807;DHT22;58882;52.170;5.386;2023-10-08T02:48:17;21.90;63.00
70807;DHT22;58882;52.170;5.386;2023-10-08T02:50:45;21.90;63.00
70807;DHT22;58882;52.170;5.386;2023-10-08T02:53:13;21.90;63.00
70807;DHT22;58882;52.170;5.386;2023-10-08T02:55:45;21.90;63.00
70807;DHT22;58882;52.170;5.386;2023-10-08T02:58:14;21.80;63.00
70807;DHT22;58882;52.170;5.386;2023-10-08T03:00:43;21.80;63.00
70807;DHT22;58882;52.170;5.386;2023-10-08T03:03:10;21.80;63.00
70807;DHT22;58882;52.170;5.386;2023-10-08T03:05:49;21.80;63.90
70807;DHT22;58882;52.170;5.386;2023-10-08T03:08:18;21.80;63.00
70807;DHT22;58882;52.170;5.386;2023-10-08T03:10:49;21.80;63.00
70807;DHT22;58882;52.170;5.386;2023-10-08T03:13:17;21.80;63.10
70807;DHT22;58882;52.170;5.386;2023-10-08T03:15:46;21.80;63.20
70807;DHT22;58882;52.170;5.386;2023-10-08T03:18:25;21.80;63.20
70807;DHT22;58882;52.170;5.386;2023-10-08T03:20:52;21.80;63.20
70807;DHT22;58882;52.170;5.386;2023-10-08T03:23:19;21.80;63.20
70807;DHT22;58882;52.170;5.386;2023-10-08T03:25:57;21.80;63.20
70807;DHT22;58882;52.170;5.386;2023-10-08T03:28:42;21.80;63.30
70807;DHT22;58882;52.170;5.386;2023-10-08T03:31:09;21.80;63.30
70807;DHT22;58882;52.170;5.386;2023-10-08T03:33:45;21.70;63.30
70807;DHT22;58882;52.170;5.386;2023-10-08T03:36:16;21.70;63.30
70807;DHT22;58882;52.170;5.386;2023-10-08T03:38:49;21.80;63.40
70807;DHT22;58882;52.170;5.386;2023-10-08T03:41:23;21.70;63.40
70807;DHT22;58882;52.170;5.386;2023-10-08T03:43:57;21.70;63.40
70807;DHT22;58882;52.170;5.386;2023-10-08T03:46:33;21.70;63.80
70807;DHT22;58882;52.170;5.386;2023-10-08T03:49:06;21.70;63.40
70807;DHT22;58882;52.170;5.386;2023-10-08T03:51:44;21.70;63.40
70807;DHT22;58882;52.170;5.386;2023-10-08T03:54:11;21.70;63.50
70807;DHT22;58882;52.170;5.386;2023-10-08T03:56:47;21.70;63.30
70807;DHT22;58882;52.170;5.386;2023-10-08T03:59:15;21.70;63.10
70807;DHT22;58882;52.170;5.386;2023-10-08T04:02:02;21.70;62.90
70807;DHT22;58882;52.170;5.386;2023-10-08T04:04:42;21.60;62.60
70807;DHT22;58882;52.170;5.386;2023-10-08T04:07:24;21.70;62.50
70807;DHT22;58882;52.170;5.386;2023-10-08T04:09:51;21.60;62.20
70807;DHT22;58882;52.170;5.386;2023-10-08T04:12:47;21.60;62.00
70807;DHT22;58882;52.170;5.386;2023-10-08T04:15:18;21.60;62.00
70807;DHT22;58882;52.170;5.386;2023-10-08T04:17:45;21.60;61.80
70807;DHT22;58882;52.170;5.386;2023-10-08T04:20:14;21.60;61.40
70807;DHT22;58882;52.170;5.386;2023-10-08T04:23:10;21.60;61.30
70807;DHT22;58882;52.170;5.386;2023-10-08T04:25:44;21.50;61.10
70807;DHT22;58882;52.170;5.386;2023-10-08T04:28:11;21.50;61.10
70807;DHT22;58882;52.170;5.386;2023-10-08T04:30:44;21.50;61.00
70807;DHT22;58882;52.170;5.386;2023-10-08T04:33:14;21.50;61.10
70807;DHT22;58882;52.170;5.386;2023-10-08T04:35:43;21.50;61.00
70807;DHT22;58882;52.170;5.386;2023-10-08T04:38:24;21.50;60.90
70807;DHT22;58882;52.170;5.386;2023-10-08T04:40:56;21.50;60.80
70807;DHT22;58882;52.170;5.386;2023-10-08T04:43:28;21.50;60.50
70807;DHT22;58882;52.170;5.386;2023-10-08T04:45:57;21.50;60.40
70807;DHT22;58882;52.170;5.386;2023-10-08T04:48:25;21.50;60.40
70807;DHT22;58882;52.170;5.386;2023-10-08T04:50:54;21.50;60.20
70807;DHT22;58882;52.170;5.386;2023-10-08T04:53:32;21.40;60.20
70807;DHT22;58882;52.170;5.386;2023-10-08T04:56:05;21.40;60.30
70807;DHT22;58882;52.170;5.386;2023-10-08T04:58:36;21.40;60.40
70807;DHT22;58882;52.170;5.386;2023-10-08T05:01:04;21.40;60.40
70807;DHT22;58882;52.170;5.386;2023-10-08T05:03:51;21.40;60.20
70807;DHT22;58882;52.170;5.386;2023-10-08T05:06:26;21.30;60.30
70807;DHT22;58882;52.170;5.386;2023-10-08T05:09:08;21.30;60.10
70807;DHT22;58882;52.170;5.386;2023-10-08T05:11:54;21.30;60.20
70807;DHT22;58882;52.170;5.386;2023-10-08T05:14:22;21.30;60.10
70807;DHT22;58882;52.170;5.386;2023-10-08T05:16:59;21.30;60.30
70807;DHT22;58882;52.170;5.386;2023-10-08T05:19:49;21.20;60.30
70807;DHT22;58882;52.170;5.386;2023-10-08T05:22:17;21.20;60.50
70807;DHT22;58882;52.170;5.386;2023-10-08T05:24:48;21.20;60.50
70807;DHT22;58882;52.170;5.386;2023-10-08T05:27:35;21.20;60.40
70807;DHT22;58882;52.170;5.386;2023-10-08T05:30:27;21.20;60.30
70807;DHT22;58882;52.170;5.386;2023-10-08T05:33:05;21.20;60.20
70807;DHT22;58882;52.170;5.386;2023-10-08T05:35:35;21.20;60.40
70807;DHT22;58882;52.170;5.386;2023-10-08T05:38:10;21.20;60.40
70807;DHT22;58882;52.170;5.386;2023-10-08T05:40:50;21.20;60.50
70807;DHT22;58882;52.170;5.386;2023-10-08T05:43:33;21.20;60.30
70807;DHT22;58882;52.170;5.386;2023-10-08T05:46:13;21.20;60.20
70807;DHT22;58882;52.170;5.386;2023-10-08T05:48:58;21.20;60.30
70807;DHT22;58882;52.170;5.386;2023-10-08T05:51:36;21.20;59.80
70807;DHT22;58882;52.170;5.386;2023-10-08T05:57:01;21.30;59.40
70807;DHT22;58882;52.170;5.386;2023-10-08T05:59:42;21.30;59.20
70807;DHT22;58882;52.170;5.386;2023-10-08T06:02:25;21.30;59.10
70807;DHT22;58882;52.170;5.386;2023-10-08T06:05:06;21.30;58.80
70807;DHT22;58882;52.170;5.386;2023-10-08T06:10:25;21.20;58.40
70807;DHT22;58882;52.170;5.386;2023-10-08T06:13:10;21.20;58.20
70807;DHT22;58882;52.170;5.386;2023-10-08T06:15:47;21.10;58.10
70807;DHT22;58882;52.170;5.386;2023-10-08T06:18:22;21.10;59.20
70807;DHT22;58882;52.170;5.386;2023-10-08T06:23:28;21.10;57.80
70807;DHT22;58882;52.170;5.386;2023-10-08T06:25:56;21.10;57.60
70807;DHT22;58882;52.170;5.386;2023-10-08T06:28:26;21.10;57.40
70807;DHT22;58882;52.170;5.386;2023-10-08T06:30:54;21.00;57.50
70807;DHT22;58882;52.170;5.386;2023-10-08T06:33:23;21.00;57.40
70807;DHT22;58882;52.170;5.386;2023-10-08T06:36:01;21.00;57.30
70807;DHT22;58882;52.170;5.386;2023-10-08T06:38:46;20.90;57.40
70807;DHT22;58882;52.170;5.386;2023-10-08T06:41:16;20.90;57.30
70807;DHT22;58882;52.170;5.386;2023-10-08T06:44:06;20.90;57.40
70807;DHT22;58882;52.170;5.386;2023-10-08T06:46:33;20.90;57.40
70807;DHT22;58882;52.170;5.386;2023-10-08T06:49:07;20.80;57.20
70807;DHT22;58882;52.170;5.386;2023-10-08T06:51:40;20.80;57.10
70807;DHT22;58882;52.170;5.386;2023-10-08T06:54:11;20.80;57.10
70807;DHT22;58882;52.170;5.386;2023-10-08T06:56:41;20.80;57.20
70807;DHT22;58882;52.170;5.386;2023-10-08T06:59:19;20.80;57.20
70807;DHT22;58882;52.170;5.386;2023-10-08T07:01:49;20.80;57.20
70807;DHT22;58882;52.170;5.386;2023-10-08T07:04:18;20.80;57.10
70807;DHT22;58882;52.170;5.386;2023-10-08T07:06:46;20.80;57.10
70807;DHT22;58882;52.170;5.386;2023-10-08T07:09:13;20.80;56.90
70807;DHT22;58882;52.170;5.386;2023-10-08T07:11:56;20.80;56.80
70807;DHT22;58882;52.170;5.386;2023-10-08T07:14:25;20.70;56.70
70807;DHT22;58882;52.170;5.386;2023-10-08T07:16:59;20.70;56.90
70807;DHT22;58882;52.170;5.386;2023-10-08T07:19:29;20.60;56.90
70807;DHT22;58882;52.170;5.386;2023-10-08T07:22:08;20.60;57.00
70807;DHT22;58882;52.170;5.386;2023-10-08T07:24:45;20.60;56.90
70807;DHT22;58882;52.170;5.386;2023-10-08T07:27:18;20.60;57.00
70807;DHT22;58882;52.170;5.386;2023-10-08T07:29:49;20.60;57.00
70807;DHT22;58882;52.170;5.386;2023-10-08T07:32:16;20.60;57.00
70807;DHT22;58882;52.170;5.386;2023-10-08T07:34:45;20.60;58.00
70807;DHT22;58882;52.170;5.386;2023-10-08T07:37:12;20.60;58.00
70807;DHT22;58882;52.170;5.386;2023-10-08T07:39:40;20.60;57.00
70807;DHT22;58882;52.170;5.386;2023-10-08T07:42:14;20.60;57.00
70807;DHT22;58882;52.170;5.386;2023-10-08T07:44:41;20.60;56.90
70807;DHT22;58882;52.170;5.386;2023-10-08T07:47:08;20.70;57.90
70807;DHT22;58882;52.170;5.386;2023-10-08T07:49:38;20.60;56.90
70807;DHT22;58882;52.170;5.386;2023-10-08T07:52:06;20.70;58.00
70807;DHT22;58882;52.170;5.386;2023-10-08T07:54:32;20.70;57.00
70807;DHT22;58882;52.170;5.386;2023-10-08T07:57:03;20.70;56.90
70807;DHT22;58882;52.170;5.386;2023-10-08T07:59:40;20.70;57.90
70807;DHT22;58882;52.170;5.386;2023-10-08T08:02:15;20.80;56.90
70807;DHT22;58882;52.170;5.386;2023-10-08T08:04:45;20.80;57.10
70807;DHT22;58882;52.170;5.386;2023-10-08T08:07:12;20.90;57.10
70807;DHT22;58882;52.170;5.386;2023-10-08T08:09:48;20.90;57.20
70807;DHT22;58882;52.170;5.386;2023-10-08T08:12:20;20.90;56.80
70807;DHT22;58882;52.170;5.386;2023-10-08T08:14:48;21.00;56.60
70807;DHT22;58882;52.170;5.386;2023-10-08T08:17:16;21.00;56.50
70807;DHT22;58882;52.170;5.386;2023-10-08T08:19:45;21.00;56.40
70807;DHT22;58882;52.170;5.386;2023-10-08T08:22:14;21.00;56.60
70807;DHT22;58882;52.170;5.386;2023-10-08T08:24:51;21.10;56.50
70807;DHT22;58882;52.170;5.386;2023-10-08T08:27:29;21.10;55.90
70807;DHT22;58882;52.170;5.386;2023-10-08T08:30:00;21.10;56.90
70807;DHT22;58882;52.170;5.386;2023-10-08T08:32:44;21.00;55.70
70807;DHT22;58882;52.170;5.386;2023-10-08T08:35:11;21.10;55.60
70807;DHT22;58882;52.170;5.386;2023-10-08T08:37:38;21.00;55.80
70807;DHT22;58882;52.170;5.386;2023-10-08T08:40:08;21.10;55.60
70807;DHT22;58882;52.170;5.386;2023-10-08T08:42:45;21.10;55.70
70807;DHT22;58882;52.170;5.386;2023-10-08T08:45:22;21.10;55.40
70807;DHT22;58882;52.170;5.386;2023-10-08T08:47:52;21.10;55.40
70807;DHT22;58882;52.170;5.386;2023-10-08T08:50:20;21.10;55.10
70807;DHT22;58882;52.170;5.386;2023-10-08T08:52:48;21.10;55.30
70807;DHT22;58882;52.170;5.386;2023-10-08T08:55:15;21.20;55.30
70807;DHT22;58882;52.170;5.386;2023-10-08T08:57:47;21.20;55.10
70807;DHT22;58882;52.170;5.386;2023-10-08T09:00:16;21.20;55.10
70807;DHT22;58882;52.170;5.386;2023-10-08T09:02:48;21.30;55.00
70807;DHT22;58882;52.170;5.386;2023-10-08T09:05:17;21.30;55.10
70807;DHT22;58882;52.170;5.386;2023-10-08T09:07:59;21.40;55.00
70807;DHT22;58882;52.170;5.386;2023-10-08T09:10:31;21.40;54.70
70807;DHT22;58882;52.170;5.386;2023-10-08T09:13:05;21.50;54.40
70807;DHT22;58882;52.170;5.386;2023-10-08T09:15:35;21.60;54.20
70807;DHT22;58882;52.170;5.386;2023-10-08T09:18:03;21.60;54.00
70807;DHT22;58882;52.170;5.386;2023-10-08T09:20:32;21.70;54.00
70807;DHT22;58882;52.170;5.386;2023-10-08T09:23:06;21.80;53.70
70807;DHT22;58882;52.170;5.386;2023-10-08T09:25:34;21.70;53.60
70807;DHT22;58882;52.170;5.386;2023-10-08T09:28:02;21.80;53.40
70807;DHT22;58882;52.170;5.386;2023-10-08T09:30:30;21.90;53.20
70807;DHT22;58882;52.170;5.386;2023-10-08T09:32:57;22.00;52.90
70807;DHT22;58882;52.170;5.386;2023-10-08T09:35:24;22.10;52.80
70807;DHT22;58882;52.170;5.386;2023-10-08T09:37:53;22.00;52.70
70807;DHT22;58882;52.170;5.386;2023-10-08T09:40:21;22.10;52.60
70807;DHT22;58882;52.170;5.386;2023-10-08T09:42:48;22.10;52.50
70807;DHT22;58882;52.170;5.386;2023-10-08T09:45:14;22.10;52.30
70807;DHT22;58882;52.170;5.386;2023-10-08T09:47:47;22.10;52.20
70807;DHT22;58882;52.170;5.386;2023-10-08T09:50:16;22.10;52.10
70807;DHT22;58882;52.170;5.386;2023-10-08T09:53:10;22.10;52.20
70807;DHT22;58882;52.170;5.386;2023-10-08T09:55:56;22.10;52.20
70807;DHT22;58882;52.170;5.386;2023-10-08T09:58:25;22.10;52.00
70807;DHT22;58882;52.170;5.386;2023-10-08T10:00:55;22.10;51.90
70807;DHT22;58882;52.170;5.386;2023-10-08T10:03:27;22.10;52.20
70807;DHT22;58882;52.170;5.386;2023-10-08T10:05:55;22.10;52.10
70807;DHT22;58882;52.170;5.386;2023-10-08T10:08:27;22.10;52.30
70807;DHT22;58882;52.170;5.386;2023-10-08T10:11:00;22.10;52.20
70807;DHT22;58882;52.170;5.386;2023-10-08T10:13:38;22.10;52.10
70807;DHT22;58882;52.170;5.386;2023-10-08T10:16:10;22.20;52.10
70807;DHT22;58882;52.170;5.386;2023-10-08T10:18:37;22.30;51.90
70807;DHT22;58882;52.170;5.386;2023-10-08T10:23:42;22.40;51.80
70807;DHT22;58882;52.170;5.386;2023-10-08T10:31:38;22.40;51.90
70807;DHT22;58882;52.170;5.386;2023-10-08T10:34:06;22.40;52.10
70807;DHT22;58882;52.170;5.386;2023-10-08T10:36:36;22.50;52.10
70807;DHT22;58882;52.170;5.386;2023-10-08T10:39:03;22.50;51.90
70807;DHT22;58882;52.170;5.386;2023-10-08T10:41:48;22.50;51.80
70807;DHT22;58882;52.170;5.386;2023-10-08T10:44:15;22.50;51.60
70807;DHT22;58882;52.170;5.386;2023-10-08T10:46:43;22.60;51.50
70807;DHT22;58882;52.170;5.386;2023-10-08T10:49:21;22.50;51.60
70807;DHT22;58882;52.170;5.386;2023-10-08T10:51:49;22.50;51.40
70807;DHT22;58882;52.170;5.386;2023-10-08T10:54:20;22.50;51.50
70807;DHT22;58882;52.170;5.386;2023-10-08T10:56:51;22.50;51.70
70807;DHT22;58882;52.170;5.386;2023-10-08T10:59:31;22.60;51.60
70807;DHT22;58882;52.170;5.386;2023-10-08T11:02:06;22.60;51.50
70807;DHT22;58882;52.170;5.386;2023-10-08T11:04:48;22.60;51.30
70807;DHT22;58882;52.170;5.386;2023-10-08T11:07:21;22.70;51.10
70807;DHT22;58882;52.170;5.386;2023-10-08T11:09:49;22.70;51.00
70807;DHT22;58882;52.170;5.386;2023-10-08T11:12:18;22.70;50.90
70807;DHT22;58882;52.170;5.386;2023-10-08T11:14:50;22.80;51.00
70807;DHT22;58882;52.170;5.386;2023-10-08T11:17:24;22.80;51.00
70807;DHT22;58882;52.170;5.386;2023-10-08T11:19:52;22.80;50.70
70807;DHT22;58882;52.170;5.386;2023-10-08T11:22:19;22.80;50.60
70807;DHT22;58882;52.170;5.386;2023-10-08T11:24:49;22.90;50.60
70807;DHT22;58882;52.170;5.386;2023-10-08T11:27:21;22.90;50.60
70807;DHT22;58882;52.170;5.386;2023-10-08T11:30:03;23.00;50.50
70807;DHT22;58882;52.170;5.386;2023-10-08T11:32:38;22.90;50.40
70807;DHT22;58882;52.170;5.386;2023-10-08T11:35:06;23.00;50.60
70807;DHT22;58882;52.170;5.386;2023-10-08T11:37:46;22.90;50.50
70807;DHT22;58882;52.170;5.386;2023-10-08T11:40:25;22.90;50.60
70807;DHT22;58882;52.170;5.386;2023-10-08T11:42:57;22.90;50.60
70807;DHT22;58882;52.170;5.386;2023-10-08T11:45:26;22.90;50.60
70807;DHT22;58882;52.170;5.386;2023-10-08T11:47:54;22.90;50.70
70807;DHT22;58882;52.170;5.386;2023-10-08T11:50:27;22.80;50.70
70807;DHT22;58882;52.170;5.386;2023-10-08T11:52:59;22.80;50.80
70807;DHT22;58882;52.170;5.386;2023-10-08T11:55:31;22.80;50.70
70807;DHT22;58882;52.170;5.386;2023-10-08T11:58:09;22.80;50.90
70807;DHT22;58882;52.170;5.386;2023-10-08T12:00:39;22.80;50.90
70807;DHT22;58882;52.170;5.386;2023-10-08T12:03:15;22.80;51.00
70807;DHT22;58882;52.170;5.386;2023-10-08T12:05:50;22.80;50.80
70807;DHT22;58882;52.170;5.386;2023-10-08T12:08:26;22.80;50.70
70807;DHT22;58882;52.170;5.386;2023-10-08T12:10:54;22.80;50.90
70807;DHT22;58882;52.170;5.386;2023-10-08T12:13:22;22.80;50.70
70807;DHT22;58882;52.170;5.386;2023-10-08T12:15:53;22.90;50.80
70807;DHT22;58882;52.170;5.386;2023-10-08T12:18:33;22.80;51.80
70807;DHT22;58882;52.170;5.386;2023-10-08T12:21:07;22.90;50.70
70807;DHT22;58882;52.170;5.386;2023-10-08T12:23:42;22.90;51.60
70807;DHT22;58882;52.170;5.386;2023-10-08T12:26:17;22.90;50.70
70807;DHT22;58882;52.170;5.386;2023-10-08T12:28:46;22.90;50.50
70807;DHT22;58882;52.170;5.386;2023-10-08T12:31:18;22.80;50.60
70807;DHT22;58882;52.170;5.386;2023-10-08T12:33:49;22.80;50.70
70807;DHT22;58882;52.170;5.386;2023-10-08T12:36:20;22.80;50.70
70807;DHT22;58882;52.170;5.386;2023-10-08T12:38:50;22.80;50.90
70807;DHT22;58882;52.170;5.386;2023-10-08T12:41:27;22.80;50.80
70807;DHT22;58882;52.170;5.386;2023-10-08T12:43:54;22.80;50.90
70807;DHT22;58882;52.170;5.386;2023-10-08T12:46:22;22.80;50.90
70807;DHT22;58882;52.170;5.386;2023-10-08T12:48:53;22.80;50.90
70807;DHT22;58882;52.170;5.386;2023-10-08T12:51:22;22.80;51.90
70807;DHT22;58882;52.170;5.386;2023-10-08T12:53:52;22.80;50.80
70807;DHT22;58882;52.170;5.386;2023-10-08T12:56:39;22.80;51.00
70807;DHT22;58882;52.170;5.386;2023-10-08T12:59:12;22.80;50.90
70807;DHT22;58882;52.170;5.386;2023-10-08T13:01:48;22.80;51.00
70807;DHT22;58882;52.170;5.386;2023-10-08T13:04:21;22.80;50.90
70807;DHT22;58882;52.170;5.386;2023-10-08T13:06:55;22.80;51.00
70807;DHT22;58882;52.170;5.386;2023-10-08T13:09:27;22.80;51.10
70807;DHT22;58882;52.170;5.386;2023-10-08T13:11:58;22.80;52.10
70807;DHT22;58882;52.170;5.386;2023-10-08T13:14:28;22.80;51.10
70807;DHT22;58882;52.170;5.386;2023-10-08T13:16:55;22.70;51.00
70807;DHT22;58882;52.170;5.386;2023-10-08T13:19:22;22.80;50.90
70807;DHT22;58882;52.170;5.386;2023-10-08T13:21:53;22.80;50.90
70807;DHT22;58882;52.170;5.386;2023-10-08T13:24:20;22.80;51.00
70807;DHT22;58882;52.170;5.386;2023-10-08T13:26:51;22.80;51.00
70807;DHT22;58882;52.170;5.386;2023-10-08T13:29:18;22.80;50.90
70807;DHT22;58882;52.170;5.386;2023-10-08T13:31:45;22.80;51.00
70807;DHT22;58882;52.170;5.386;2023-10-08T13:34:13;22.80;50.80
70807;DHT22;58882;52.170;5.386;2023-10-08T13:36:43;22.80;50.60
70807;DHT22;58882;52.170;5.386;2023-10-08T13:39:14;22.80;50.60
70807;DHT22;58882;52.170;5.386;2023-10-08T13:41:45;22.70;50.60
70807;DHT22;58882;52.170;5.386;2023-10-08T13:44:15;22.70;50.80
70807;DHT22;58882;52.170;5.386;2023-10-08T13:46:42;22.60;51.10
70807;DHT22;58882;52.170;5.386;2023-10-08T13:49:16;22.60;51.10
70807;DHT22;58882;52.170;5.386;2023-10-08T13:51:45;22.70;51.00
70807;DHT22;58882;52.170;5.386;2023-10-08T13:54:13;22.70;51.00
70807;DHT22;58882;52.170;5.386;2023-10-08T13:56:41;22.70;51.00
70807;DHT22;58882;52.170;5.386;2023-10-08T13:59:15;22.70;51.10
70807;DHT22;58882;52.170;5.386;2023-10-08T14:01:44;22.70;51.00
70807;DHT22;58882;52.170;5.386;2023-10-08T14:04:18;22.70;51.00
70807;DHT22;58882;52.170;5.386;2023-10-08T14:06:57;22.70;50.80
70807;DHT22;58882;52.170;5.386;2023-10-08T14:09:25;22.60;50.80
70807;DHT22;58882;52.170;5.386;2023-10-08T14:11:59;22.60;50.90
70807;DHT22;58882;52.170;5.386;2023-10-08T14:14:28;22.50;51.00
70807;DHT22;58882;52.170;5.386;2023-10-08T14:17:01;22.50;51.10
70807;DHT22;58882;52.170;5.386;2023-10-08T14:19:38;22.50;51.10
70807;DHT22;58882;52.170;5.386;2023-10-08T14:22:27;22.50;51.20
70807;DHT22;58882;52.170;5.386;2023-10-08T14:24:54;22.50;51.40
70807;DHT22;58882;52.170;5.386;2023-10-08T14:27:27;22.50;51.50
70807;DHT22;58882;52.170;5.386;2023-10-08T14:30:07;22.50;51.40
70807;DHT22;58882;52.170;5.386;2023-10-08T14:32:42;22.50;51.50
70807;DHT22;58882;52.170;5.386;2023-10-08T14:35:13;22.50;51.50
70807;DHT22;58882;52.170;5.386;2023-10-08T14:38:00;22.50;51.40
70807;DHT22;58882;52.170;5.386;2023-10-08T14:40:47;22.50;51.40
70807;DHT22;58882;52.170;5.386;2023-10-08T14:43:32;22.50;52.50
70807;DHT22;58882;52.170;5.386;2023-10-08T14:46:01;22.50;51.60
70807;DHT22;58882;52.170;5.386;2023-10-08T14:48:32;22.50;51.70
70807;DHT22;58882;52.170;5.386;2023-10-08T14:51:02;22.50;51.70
70807;DHT22;58882;52.170;5.386;2023-10-08T14:53:30;22.50;51.80
70807;DHT22;58882;52.170;5.386;2023-10-08T14:55:58;22.50;51.50
70807;DHT22;58882;52.170;5.386;2023-10-08T14:58:25;22.50;51.60
70807;DHT22;58882;52.170;5.386;2023-10-08T15:00:53;22.50;51.80
70807;DHT22;58882;52.170;5.386;2023-10-08T15:03:21;22.50;51.80
70807;DHT22;58882;52.170;5.386;2023-10-08T15:05:48;22.50;51.70
70807;DHT22;58882;52.170;5.386;2023-10-08T15:08:18;22.40;51.80
70807;DHT22;58882;52.170;5.386;2023-10-08T15:10:45;22.40;51.90
70807;DHT22;58882;52.170;5.386;2023-10-08T15:13:13;22.40;52.00
70807;DHT22;58882;52.170;5.386;2023-10-08T15:15:40;22.40;52.00
70807;DHT22;58882;52.170;5.386;2023-10-08T15:18:09;22.40;52.10
70807;DHT22;58882;52.170;5.386;2023-10-08T15:20:39;22.40;52.30
70807;DHT22;58882;52.170;5.386;2023-10-08T15:23:08;22.30;52.30
70807;DHT22;58882;52.170;5.386;2023-10-08T15:25:39;22.40;52.20
70807;DHT22;58882;52.170;5.386;2023-10-08T15:28:06;22.30;52.30
70807;DHT22;58882;52.170;5.386;2023-10-08T15:30:35;22.30;52.30
70807;DHT22;58882;52.170;5.386;2023-10-08T15:33:02;22.30;52.50
70807;DHT22;58882;52.170;5.386;2023-10-08T15:35:29;22.30;52.40
70807;DHT22;58882;52.170;5.386;2023-10-08T15:37:56;22.30;52.60
70807;DHT22;58882;52.170;5.386;2023-10-08T15:40:23;22.30;52.70
70807;DHT22;58882;52.170;5.386;2023-10-08T15:42:52;22.30;52.70
70807;DHT22;58882;52.170;5.386;2023-10-08T15:45:21;22.30;52.70
70807;DHT22;58882;52.170;5.386;2023-10-08T15:47:49;22.30;52.80
70807;DHT22;58882;52.170;5.386;2023-10-08T15:50:18;22.30;52.80
70807;DHT22;58882;52.170;5.386;2023-10-08T15:52:51;22.20;52.70
70807;DHT22;58882;52.170;5.386;2023-10-08T15:55:18;22.20;52.70
70807;DHT22;58882;52.170;5.386;2023-10-08T15:57:49;22.20;52.90
70807;DHT22;58882;52.170;5.386;2023-10-08T16:00:16;22.20;52.90
70807;DHT22;58882;52.170;5.386;2023-10-08T16:02:45;22.20;52.70
70807;DHT22;58882;52.170;5.386;2023-10-08T16:05:13;22.20;52.80
70807;DHT22;58882;52.170;5.386;2023-10-08T16:07:42;22.20;52.70
70807;DHT22;58882;52.170;5.386;2023-10-08T16:10:09;22.30;52.80
70807;DHT22;58882;52.170;5.386;2023-10-08T16:12:36;22.20;52.90
70807;DHT22;58882;52.170;5.386;2023-10-08T16:15:04;22.20;53.00
70807;DHT22;58882;52.170;5.386;2023-10-08T16:17:32;22.20;53.10